Pagrindinis puslapis
METAR-TAF:

METAR-TAF

Oro uostai :

Darvinas, Australija

platuma: 12-24S, ilguma: 130-52E, Aukštis: 31 m

Dabartinis oras

Ataskaita buvo paskelbta 12 minutes, ne 19:00 UTC
Vėjas 3 kt iš Rytų/Šiaurės Rytų
Temperatūra 25°C
Drėgmė 94%
Slėgis 1010 hPa
Matomumas 10 km arba daugiau
Išsisklaidę debesys ne aukštis 4100 ft

METAR: YPDN 301900Z AUTO 07003KT 9999 // SCT041 25/24 Q1010

Laikas: 04:42 (19:12 UTC)

Prognozė

Ataskaita buvo paskelbta 1 valandą ir 9 minutes, ne 18:03 UTC
Prognozė galioja nuo 30 metu 18 UTC su 02 metu 00 UTC
Vėjas 7 kt iš Rytų
Matomumas 10 km arba daugiau
Išsisklaidę debesys ne aukštis 2500 ft
Nuo 01 metu 0300 UTC
Vėjas 14 kt iš Šiaurės/Šiaurės Rytų
Matomumas 10 km arba daugiau
Mažai debesys ne aukštis 4000 ft
Nuo 01 metu 1400 UTC
Vėjas 7 kt iš Rytų/Pietryčių
Matomumas 10 km arba daugiau
Išsisklaidę debesys ne aukštis 2000 ft

TAF: YPDN 301803Z 3018/0200 09007KT 9999 SCT025 FM010300 03014KT 9999 FEW040 FM011400 11007KT 9999 SCT020

Orai ataskaitas ir orų prognozės (METAR, TAF).

turimą stotys yra geltonos ir raudonos taškus žemėlapyje.

Perkelti pele per norėdami pamatyti stoties vardą.

Tada spustelėkite, norėdami matyti oro stebėjimo ir prognozės.

Norėdami pakeisti žemėlapį: spustelėkite ant žalios mygtukų su juodo kryžiaus žemyn,; žalią mygtuką su brūkšneliu, jei norite nutolinti; arba žalių rodyklių gretimoms žemėlapius.


METAR-TAF: